首页
METAR-TAF:

METAR-TAF

机场 :

亨德森, 内华达州, 美国

纬度: 35-58-35N, 经度: 115-07-58W, 海拔: 749米

当前天气观测

该预报发布于1小时和10分钟前的15:56 UTC
风速3节,风向南转南东
温度 9°C
湿度 31%
气压 1011 hPa
能見度: 16.1公里
天空无云

METAR: KHND 231556Z 16003KT 10SM CLR 09/M07 A2985 RMK AO2 SLP125 T00891072

时间: 09:06 (17:06 UTC)

预报

该预报发布于5小时和46分钟前的11:20 UTC
预报有效从23日的 12点(UTC)到 24日的 12点(UTC)
风速7节,风向
能見度: 10公里
少量云层高于25000英尺
从 23日的 1600点(UTC)
风速5节,风向多变
能見度: 10公里
散云层高于15000英尺
多云层高于20000英尺
从 23日的 2200点(UTC)
风速10节,风向北转西北
能見度: 10公里
散云层高于15000英尺
从 24日的 0200点(UTC)
风速8节,风向西
能見度: 10公里
少量云层高于15000英尺
从 24日的 0900点(UTC)
风速12节,风向
能見度: 10公里
天空无云

TAF: KHND 231120Z 2312/2412 17007KT P6SM FEW250 FM231600 VRB05KT P6SM SCT150 BKN200 FM232200 33010KT P6SM SCT150 FM240200 26008KT P6SM FEW150 FM240900 35012KT P6SM SKC

超过4000个机场的气象观测和天气预报(METAR&TAF报告)。

可查询的气象台以黄色和红色小点在地图上表示。

将鼠标移到小点上方,可查看气象台名称。

然后点击查看天气观测和预报。

如需切换地图:点击带黑十字的绿色按钮放大地图;点击带横线的绿色按钮缩小地图;或者点击绿色箭头查看邻近地区的地图。


METAR-TAF: